Gulfport Biloxi International Airport
KGPT : now visible

Airfield :











YOU CAN JOIN US ON...

 
LOGIN :

Register | Disclaimer

   EN    FR    IT 

 









Legend :    VFR   Marginal VFR   IFR   Intensive IFR   Very Intensive IFR
Visi :
Ceiling :
>= 8 km
>= 3000ft
5 to 8 km
1000 to 3000 ft
1500m to 5 km
500 to 1000 ft
800 to 1500m
200 to 500 ft
< 800m
< 200 ft
Symbols :   Thunderstorms  Fog  Heavy snow  Heavy precipitations  Wind > 20 kt






- Airport Elevation : 28 ft
- IATA code : GPT


KGPT - Gulfport Biloxi International

CURRENT METAR :
  • 190053Z 12005KT 10SM -RA FEW027 BKN060 OVC075 26/24 A2997 RMK AO2 RAB37 SLP148 P0003 T02560239

EXPIRED METARs :
  • 182353Z 00000KT 10SM FEW016 SCT060 27/24 A2996 RMK AO2 SLP146 60000 T02670239 10289 20267 51008
  • 182253Z 19004KT 10SM FEW095 27/23 A2997 RMK AO2 SLP146 T02720233

TAF KGPT
Valid from the 19 at 00:00 until the 20 at 00:00 UTC


182336Z 1900/1924 14005KT P6SM VCSH SCT100
FM190200 11006KT P6SM SCT045
FM191100 06004KT P6SM VCSH BKN020
FM191600 14008KT P6SM VCSH SCT025 BKN035
FM191900 17010KT P6SM VCTS SCT025CB BKN035
KZHU FIR / North America



MET'MAP, your aeronautical weather chart ! - Copyright ORBIFLY December 2007 - Disclaimer

ORBIFLY MET'MAP TEAM :

Programming & Development : Alexandra Zaïnal
Concept & original design : Baudouin d'Aumeries
Assistance for programming : Marc-Olivier Méhu
Technical & hardware support : Manuel Goepfert

Contact : metmap@orbifly.com




SOURCES & CREDITS :

   NOAA       Earth
Advisory